Terminal Aerodrome Forecast
Issued by NWS North Platte, NE

Home | Current Version | Previous Version | Graphics & Text | Print | Product List | Glossary On
Versions: 1 2 3 4 5 6 7 8 9 10 11 12 13 14 15 16 17
000
FTUS43 KLBF 131900 AAA
TAFVTN
TAF AMD
KVTN 131909Z 1319/1418 36025G35KT P6SM -SN OVC025
     FM140300 36015G22KT P6SM SCT025 BKN050
     FM140800 33011KT P6SM BKN070
     FM141500 31013G24KT P6SM BKN040=

USA.gov is the U.S. government's official web portal to all federal, state and local government web resources and services.